sensor_id;sensor_type;location;lat;lon;timestamp;P1;durP1;ratioP1;P2;durP2;ratioP2
20621;SDS011;10470;42.670;23.354;2023-09-19T00:01:31;4.90;;;4.40;;
20621;SDS011;10470;42.670;23.354;2023-09-19T00:04:03;6.33;;;4.13;;
20621;SDS011;10470;42.670;23.354;2023-09-19T00:06:43;5.30;;;4.40;;
20621;SDS011;10470;42.670;23.354;2023-09-19T00:09:14;4.33;;;3.93;;
20621;SDS011;10470;42.670;23.354;2023-09-19T00:11:47;8.00;;;4.17;;
20621;SDS011;10470;42.670;23.354;2023-09-19T00:14:19;4.73;;;4.33;;
20621;SDS011;10470;42.670;23.354;2023-09-19T00:16:52;5.10;;;4.57;;
20621;SDS011;10470;42.670;23.354;2023-09-19T00:19:25;6.67;;;4.63;;
20621;SDS011;10470;42.670;23.354;2023-09-19T00:21:57;5.83;;;4.67;;
20621;SDS011;10470;42.670;23.354;2023-09-19T00:24:29;5.83;;;4.20;;
20621;SDS011;10470;42.670;23.354;2023-09-19T00:27:03;6.40;;;4.20;;
20621;SDS011;10470;42.670;23.354;2023-09-19T00:29:36;5.63;;;4.60;;
20621;SDS011;10470;42.670;23.354;2023-09-19T00:32:07;5.43;;;4.50;;
20621;SDS011;10470;42.670;23.354;2023-09-19T00:34:40;7.27;;;4.53;;
20621;SDS011;10470;42.670;23.354;2023-09-19T00:37:12;4.70;;;4.10;;
20621;SDS011;10470;42.670;23.354;2023-09-19T00:39:45;5.00;;;4.50;;
20621;SDS011;10470;42.670;23.354;2023-09-19T00:42:22;4.87;;;4.37;;
20621;SDS011;10470;42.670;23.354;2023-09-19T00:44:56;5.27;;;4.63;;
20621;SDS011;10470;42.670;23.354;2023-09-19T00:47:30;4.80;;;4.33;;
20621;SDS011;10470;42.670;23.354;2023-09-19T00:50:03;6.57;;;4.47;;
20621;SDS011;10470;42.670;23.354;2023-09-19T00:52:39;4.93;;;4.40;;
20621;SDS011;10470;42.670;23.354;2023-09-19T00:55:10;7.10;;;4.50;;
20621;SDS011;10470;42.670;23.354;2023-09-19T00:57:42;5.13;;;4.53;;
20621;SDS011;10470;42.670;23.354;2023-09-19T01:00:16;8.57;;;4.73;;
20621;SDS011;10470;42.670;23.354;2023-09-19T01:02:54;5.20;;;4.70;;
20621;SDS011;10470;42.670;23.354;2023-09-19T01:05:27;5.73;;;4.47;;
20621;SDS011;10470;42.670;23.354;2023-09-19T01:08:01;6.00;;;4.50;;
20621;SDS011;10470;42.670;23.354;2023-09-19T01:10:34;5.47;;;4.73;;
20621;SDS011;10470;42.670;23.354;2023-09-19T01:18:40;5.27;;;4.33;;
20621;SDS011;10470;42.670;23.354;2023-09-19T01:21:21;6.20;;;4.50;;
20621;SDS011;10470;42.670;23.354;2023-09-19T01:24:10;7.33;;;4.53;;
20621;SDS011;10470;42.670;23.354;2023-09-19T01:29:43;5.43;;;4.93;;
20621;SDS011;10470;42.670;23.354;2023-09-19T01:32:20;6.10;;;4.80;;
20621;SDS011;10470;42.670;23.354;2023-09-19T01:34:56;7.00;;;5.03;;
20621;SDS011;10470;42.670;23.354;2023-09-19T01:37:31;5.97;;;5.03;;
20621;SDS011;10470;42.670;23.354;2023-09-19T01:40:06;6.83;;;4.97;;
20621;SDS011;10470;42.670;23.354;2023-09-19T01:42:56;8.10;;;4.87;;
20621;SDS011;10470;42.670;23.354;2023-09-19T01:48:19;7.13;;;5.23;;
20621;SDS011;10470;42.670;23.354;2023-09-19T01:51:03;6.17;;;4.80;;
20621;SDS011;10470;42.670;23.354;2023-09-19T01:53:43;8.27;;;4.80;;
20621;SDS011;10470;42.670;23.354;2023-09-19T01:56:23;6.70;;;4.97;;
20621;SDS011;10470;42.670;23.354;2023-09-19T01:58:59;5.80;;;5.20;;
20621;SDS011;10470;42.670;23.354;2023-09-19T02:01:36;6.50;;;5.17;;
20621;SDS011;10470;42.670;23.354;2023-09-19T02:04:11;7.57;;;4.93;;
20621;SDS011;10470;42.670;23.354;2023-09-19T02:06:43;5.90;;;4.93;;
20621;SDS011;10470;42.670;23.354;2023-09-19T02:09:16;6.40;;;4.77;;
20621;SDS011;10470;42.670;23.354;2023-09-19T02:11:49;8.00;;;4.93;;
20621;SDS011;10470;42.670;23.354;2023-09-19T02:14:22;6.77;;;4.93;;
20621;SDS011;10470;42.670;23.354;2023-09-19T02:16:57;5.80;;;5.00;;
20621;SDS011;10470;42.670;23.354;2023-09-19T02:19:30;5.70;;;5.13;;
20621;SDS011;10470;42.670;23.354;2023-09-19T02:22:03;5.87;;;4.90;;
20621;SDS011;10470;42.670;23.354;2023-09-19T02:24:38;6.87;;;5.30;;
20621;SDS011;10470;42.670;23.354;2023-09-19T02:27:11;5.83;;;5.20;;
20621;SDS011;10470;42.670;23.354;2023-09-19T02:29:45;5.73;;;4.83;;
20621;SDS011;10470;42.670;23.354;2023-09-19T02:32:19;6.50;;;5.07;;
20621;SDS011;10470;42.670;23.354;2023-09-19T02:34:52;5.20;;;4.80;;
20621;SDS011;10470;42.670;23.354;2023-09-19T02:37:27;5.73;;;5.13;;
20621;SDS011;10470;42.670;23.354;2023-09-19T02:39:59;9.77;;;5.90;;
20621;SDS011;10470;42.670;23.354;2023-09-19T02:42:32;6.23;;;5.57;;
20621;SDS011;10470;42.670;23.354;2023-09-19T02:45:06;6.57;;;5.87;;
20621;SDS011;10470;42.670;23.354;2023-09-19T02:47:42;6.47;;;5.33;;
20621;SDS011;10470;42.670;23.354;2023-09-19T02:50:19;6.80;;;5.00;;
20621;SDS011;10470;42.670;23.354;2023-09-19T02:52:52;5.60;;;5.10;;
20621;SDS011;10470;42.670;23.354;2023-09-19T02:55:25;7.00;;;4.90;;
20621;SDS011;10470;42.670;23.354;2023-09-19T02:57:59;5.97;;;5.20;;
20621;SDS011;10470;42.670;23.354;2023-09-19T03:00:32;6.50;;;5.77;;
20621;SDS011;10470;42.670;23.354;2023-09-19T03:03:06;7.17;;;5.57;;
20621;SDS011;10470;42.670;23.354;2023-09-19T03:05:40;5.70;;;4.80;;
20621;SDS011;10470;42.670;23.354;2023-09-19T03:08:13;11.37;;;5.33;;
20621;SDS011;10470;42.670;23.354;2023-09-19T03:10:47;6.73;;;5.50;;
20621;SDS011;10470;42.670;23.354;2023-09-19T03:13:20;7.97;;;5.43;;
20621;SDS011;10470;42.670;23.354;2023-09-19T03:15:54;6.40;;;5.23;;
20621;SDS011;10470;42.670;23.354;2023-09-19T03:18:28;7.03;;;5.17;;
20621;SDS011;10470;42.670;23.354;2023-09-19T03:21:02;6.13;;;5.40;;
20621;SDS011;10470;42.670;23.354;2023-09-19T03:23:36;8.00;;;5.90;;
20621;SDS011;10470;42.670;23.354;2023-09-19T03:26:09;6.30;;;5.40;;
20621;SDS011;10470;42.670;23.354;2023-09-19T03:28:43;6.77;;;5.57;;
20621;SDS011;10470;42.670;23.354;2023-09-19T03:31:18;6.87;;;5.87;;
20621;SDS011;10470;42.670;23.354;2023-09-19T03:33:51;6.23;;;5.30;;
20621;SDS011;10470;42.670;23.354;2023-09-19T03:36:25;9.23;;;5.93;;
20621;SDS011;10470;42.670;23.354;2023-09-19T03:38:58;9.23;;;6.10;;
20621;SDS011;10470;42.670;23.354;2023-09-19T03:41:31;9.03;;;6.17;;
20621;SDS011;10470;42.670;23.354;2023-09-19T03:44:05;8.93;;;5.73;;
20621;SDS011;10470;42.670;23.354;2023-09-19T03:46:37;6.97;;;5.60;;
20621;SDS011;10470;42.670;23.354;2023-09-19T03:49:11;7.60;;;5.80;;
20621;SDS011;10470;42.670;23.354;2023-09-19T03:51:45;7.47;;;5.60;;
20621;SDS011;10470;42.670;23.354;2023-09-19T03:54:18;6.97;;;6.00;;
20621;SDS011;10470;42.670;23.354;2023-09-19T03:56:51;7.87;;;6.07;;
20621;SDS011;10470;42.670;23.354;2023-09-19T03:59:24;9.63;;;6.77;;
20621;SDS011;10470;42.670;23.354;2023-09-19T04:01:58;13.63;;;10.63;;
20621;SDS011;10470;42.670;23.354;2023-09-19T04:04:32;18.07;;;13.30;;
20621;SDS011;10470;42.670;23.354;2023-09-19T04:07:05;10.50;;;8.50;;
20621;SDS011;10470;42.670;23.354;2023-09-19T04:09:39;9.83;;;7.20;;
20621;SDS011;10470;42.670;23.354;2023-09-19T04:12:12;8.77;;;7.50;;
20621;SDS011;10470;42.670;23.354;2023-09-19T04:14:45;8.43;;;6.63;;
20621;SDS011;10470;42.670;23.354;2023-09-19T04:17:20;10.93;;;6.47;;
20621;SDS011;10470;42.670;23.354;2023-09-19T04:19:53;7.67;;;6.63;;
20621;SDS011;10470;42.670;23.354;2023-09-19T04:22:27;14.67;;;11.47;;
20621;SDS011;10470;42.670;23.354;2023-09-19T04:25:01;15.07;;;11.60;;
20621;SDS011;10470;42.670;23.354;2023-09-19T04:27:34;14.37;;;8.00;;
20621;SDS011;10470;42.670;23.354;2023-09-19T04:30:09;9.87;;;7.00;;
20621;SDS011;10470;42.670;23.354;2023-09-19T04:32:43;9.97;;;6.43;;
20621;SDS011;10470;42.670;23.354;2023-09-19T04:35:18;8.07;;;6.40;;
20621;SDS011;10470;42.670;23.354;2023-09-19T04:37:51;7.70;;;5.93;;
20621;SDS011;10470;42.670;23.354;2023-09-19T04:40:24;8.67;;;6.97;;
20621;SDS011;10470;42.670;23.354;2023-09-19T04:42:59;8.40;;;6.97;;
20621;SDS011;10470;42.670;23.354;2023-09-19T04:45:33;7.13;;;6.30;;
20621;SDS011;10470;42.670;23.354;2023-09-19T04:48:07;12.57;;;6.90;;
20621;SDS011;10470;42.670;23.354;2023-09-19T04:50:41;9.83;;;6.30;;
20621;SDS011;10470;42.670;23.354;2023-09-19T04:53:15;9.47;;;6.30;;
20621;SDS011;10470;42.670;23.354;2023-09-19T04:55:52;8.87;;;6.27;;
20621;SDS011;10470;42.670;23.354;2023-09-19T04:58:22;7.43;;;6.03;;
20621;SDS011;10470;42.670;23.354;2023-09-19T05:00:57;6.30;;;5.53;;
20621;SDS011;10470;42.670;23.354;2023-09-19T05:03:30;6.87;;;5.57;;
20621;SDS011;10470;42.670;23.354;2023-09-19T05:06:03;8.60;;;6.47;;
20621;SDS011;10470;42.670;23.354;2023-09-19T05:08:36;11.87;;;7.33;;
20621;SDS011;10470;42.670;23.354;2023-09-19T05:11:10;9.23;;;6.70;;
20621;SDS011;10470;42.670;23.354;2023-09-19T05:13:45;10.07;;;7.00;;
20621;SDS011;10470;42.670;23.354;2023-09-19T05:16:18;12.43;;;7.70;;
20621;SDS011;10470;42.670;23.354;2023-09-19T05:18:52;11.20;;;7.60;;
20621;SDS011;10470;42.670;23.354;2023-09-19T05:21:27;13.90;;;7.20;;
20621;SDS011;10470;42.670;23.354;2023-09-19T05:24:00;8.97;;;6.60;;
20621;SDS011;10470;42.670;23.354;2023-09-19T05:26:34;12.30;;;7.77;;
20621;SDS011;10470;42.670;23.354;2023-09-19T05:29:08;10.10;;;6.83;;
20621;SDS011;10470;42.670;23.354;2023-09-19T05:31:42;9.57;;;6.80;;
20621;SDS011;10470;42.670;23.354;2023-09-19T05:34:16;8.93;;;6.73;;
20621;SDS011;10470;42.670;23.354;2023-09-19T05:36:50;9.43;;;7.00;;
20621;SDS011;10470;42.670;23.354;2023-09-19T05:39:24;10.57;;;7.17;;
20621;SDS011;10470;42.670;23.354;2023-09-19T05:41:58;7.93;;;6.17;;
20621;SDS011;10470;42.670;23.354;2023-09-19T05:44:32;9.97;;;6.80;;
20621;SDS011;10470;42.670;23.354;2023-09-19T05:47:05;10.60;;;6.43;;
20621;SDS011;10470;42.670;23.354;2023-09-19T05:49:39;10.87;;;6.37;;
20621;SDS011;10470;42.670;23.354;2023-09-19T05:52:13;9.77;;;6.03;;
20621;SDS011;10470;42.670;23.354;2023-09-19T05:54:47;6.87;;;5.27;;
20621;SDS011;10470;42.670;23.354;2023-09-19T05:57:21;6.70;;;5.50;;
20621;SDS011;10470;42.670;23.354;2023-09-19T05:59:55;6.43;;;4.80;;
20621;SDS011;10470;42.670;23.354;2023-09-19T06:02:28;6.20;;;4.87;;
20621;SDS011;10470;42.670;23.354;2023-09-19T06:05:02;9.40;;;5.43;;
20621;SDS011;10470;42.670;23.354;2023-09-19T06:07:36;5.10;;;4.40;;
20621;SDS011;10470;42.670;23.354;2023-09-19T06:10:09;6.73;;;4.90;;
20621;SDS011;10470;42.670;23.354;2023-09-19T06:12:43;8.97;;;5.33;;
20621;SDS011;10470;42.670;23.354;2023-09-19T06:15:17;8.57;;;4.77;;
20621;SDS011;10470;42.670;23.354;2023-09-19T06:17:58;5.20;;;4.70;;
20621;SDS011;10470;42.670;23.354;2023-09-19T06:20:30;7.07;;;5.10;;
20621;SDS011;10470;42.670;23.354;2023-09-19T06:23:05;7.40;;;5.13;;
20621;SDS011;10470;42.670;23.354;2023-09-19T06:25:40;8.73;;;5.10;;
20621;SDS011;10470;42.670;23.354;2023-09-19T06:28:13;10.27;;;5.27;;
20621;SDS011;10470;42.670;23.354;2023-09-19T06:30:47;8.87;;;4.90;;
20621;SDS011;10470;42.670;23.354;2023-09-19T06:33:22;7.67;;;5.30;;
20621;SDS011;10470;42.670;23.354;2023-09-19T06:35:56;7.57;;;5.07;;
20621;SDS011;10470;42.670;23.354;2023-09-19T06:38:30;9.77;;;5.57;;
20621;SDS011;10470;42.670;23.354;2023-09-19T06:41:03;8.93;;;5.73;;
20621;SDS011;10470;42.670;23.354;2023-09-19T06:43:38;5.30;;;4.80;;
20621;SDS011;10470;42.670;23.354;2023-09-19T06:46:11;10.33;;;5.50;;
20621;SDS011;10470;42.670;23.354;2023-09-19T06:48:46;5.77;;;5.13;;
20621;SDS011;10470;42.670;23.354;2023-09-19T06:51:19;8.83;;;5.20;;
20621;SDS011;10470;42.670;23.354;2023-09-19T06:53:53;7.60;;;5.37;;
20621;SDS011;10470;42.670;23.354;2023-09-19T06:56:27;7.03;;;5.40;;
20621;SDS011;10470;42.670;23.354;2023-09-19T06:59:01;6.00;;;4.70;;
20621;SDS011;10470;42.670;23.354;2023-09-19T07:01:36;8.33;;;5.50;;
20621;SDS011;10470;42.670;23.354;2023-09-19T07:04:10;7.80;;;5.83;;
20621;SDS011;10470;42.670;23.354;2023-09-19T07:06:43;7.80;;;5.10;;
20621;SDS011;10470;42.670;23.354;2023-09-19T07:09:18;6.83;;;5.07;;
20621;SDS011;10470;42.670;23.354;2023-09-19T07:11:52;11.70;;;5.80;;
20621;SDS011;10470;42.670;23.354;2023-09-19T07:14:27;9.23;;;5.13;;
20621;SDS011;10470;42.670;23.354;2023-09-19T07:17:00;5.90;;;4.93;;
20621;SDS011;10470;42.670;23.354;2023-09-19T07:19:33;5.20;;;4.60;;
20621;SDS011;10470;42.670;23.354;2023-09-19T07:22:08;7.00;;;4.60;;
20621;SDS011;10470;42.670;23.354;2023-09-19T07:24:41;7.50;;;4.77;;
20621;SDS011;10470;42.670;23.354;2023-09-19T07:27:15;7.20;;;4.57;;
20621;SDS011;10470;42.670;23.354;2023-09-19T07:29:49;5.67;;;4.77;;
20621;SDS011;10470;42.670;23.354;2023-09-19T07:32:24;5.50;;;4.73;;
20621;SDS011;10470;42.670;23.354;2023-09-19T07:34:58;8.57;;;5.10;;
20621;SDS011;10470;42.670;23.354;2023-09-19T07:37:32;6.23;;;4.53;;
20621;SDS011;10470;42.670;23.354;2023-09-19T07:40:07;5.40;;;4.40;;
20621;SDS011;10470;42.670;23.354;2023-09-19T07:42:39;6.43;;;4.77;;
20621;SDS011;10470;42.670;23.354;2023-09-19T07:45:13;8.63;;;5.13;;
20621;SDS011;10470;42.670;23.354;2023-09-19T07:47:53;8.67;;;5.00;;
20621;SDS011;10470;42.670;23.354;2023-09-19T07:50:28;7.37;;;4.60;;
20621;SDS011;10470;42.670;23.354;2023-09-19T07:53:03;7.57;;;5.10;;
20621;SDS011;10470;42.670;23.354;2023-09-19T07:55:36;5.70;;;4.77;;
20621;SDS011;10470;42.670;23.354;2023-09-19T07:58:11;9.13;;;4.90;;
20621;SDS011;10470;42.670;23.354;2023-09-19T08:00:44;5.37;;;4.67;;
20621;SDS011;10470;42.670;23.354;2023-09-19T08:03:20;8.90;;;6.20;;
20621;SDS011;10470;42.670;23.354;2023-09-19T08:05:55;10.43;;;5.80;;
20621;SDS011;10470;42.670;23.354;2023-09-19T08:08:28;7.93;;;5.47;;
20621;SDS011;10470;42.670;23.354;2023-09-19T08:11:03;10.17;;;5.80;;
20621;SDS011;10470;42.670;23.354;2023-09-19T08:13:48;9.77;;;5.40;;
20621;SDS011;10470;42.670;23.354;2023-09-19T08:16:22;9.43;;;5.80;;
20621;SDS011;10470;42.670;23.354;2023-09-19T08:18:56;9.80;;;5.70;;
20621;SDS011;10470;42.670;23.354;2023-09-19T08:21:30;7.03;;;5.17;;
20621;SDS011;10470;42.670;23.354;2023-09-19T08:24:03;10.83;;;5.77;;
20621;SDS011;10470;42.670;23.354;2023-09-19T08:26:37;9.13;;;5.47;;
20621;SDS011;10470;42.670;23.354;2023-09-19T08:29:11;5.97;;;5.23;;
20621;SDS011;10470;42.670;23.354;2023-09-19T08:31:46;10.10;;;5.73;;
20621;SDS011;10470;42.670;23.354;2023-09-19T08:34:20;11.17;;;8.47;;
20621;SDS011;10470;42.670;23.354;2023-09-19T08:36:54;7.07;;;5.60;;
20621;SDS011;10470;42.670;23.354;2023-09-19T08:39:28;11.80;;;6.27;;
20621;SDS011;10470;42.670;23.354;2023-09-19T08:42:01;7.53;;;5.90;;
20621;SDS011;10470;42.670;23.354;2023-09-19T08:44:37;8.37;;;5.87;;
20621;SDS011;10470;42.670;23.354;2023-09-19T08:47:10;11.73;;;7.10;;
20621;SDS011;10470;42.670;23.354;2023-09-19T08:50:04;10.97;;;6.97;;
20621;SDS011;10470;42.670;23.354;2023-09-19T08:52:43;7.70;;;5.60;;
20621;SDS011;10470;42.670;23.354;2023-09-19T08:55:15;12.10;;;5.80;;
20621;SDS011;10470;42.670;23.354;2023-09-19T08:57:59;6.10;;;5.50;;
20621;SDS011;10470;42.670;23.354;2023-09-19T09:00:29;6.93;;;5.20;;
20621;SDS011;10470;42.670;23.354;2023-09-19T09:03:04;7.13;;;5.47;;
20621;SDS011;10470;42.670;23.354;2023-09-19T09:05:38;9.60;;;6.23;;
20621;SDS011;10470;42.670;23.354;2023-09-19T09:08:11;10.07;;;5.93;;
20621;SDS011;10470;42.670;23.354;2023-09-19T09:10:46;7.53;;;5.67;;
20621;SDS011;10470;42.670;23.354;2023-09-19T09:13:20;12.70;;;6.00;;
20621;SDS011;10470;42.670;23.354;2023-09-19T09:15:54;7.47;;;5.87;;
20621;SDS011;10470;42.670;23.354;2023-09-19T09:18:28;8.63;;;5.90;;
20621;SDS011;10470;42.670;23.354;2023-09-19T09:21:01;13.47;;;6.97;;
20621;SDS011;10470;42.670;23.354;2023-09-19T09:23:35;12.23;;;5.80;;
20621;SDS011;10470;42.670;23.354;2023-09-19T09:26:09;10.23;;;5.63;;
20621;SDS011;10470;42.670;23.354;2023-09-19T09:28:44;8.10;;;6.20;;
20621;SDS011;10470;42.670;23.354;2023-09-19T09:31:24;9.83;;;5.40;;
20621;SDS011;10470;42.670;23.354;2023-09-19T09:33:58;10.47;;;5.30;;
20621;SDS011;10470;42.670;23.354;2023-09-19T09:36:37;14.40;;;5.33;;
20621;SDS011;10470;42.670;23.354;2023-09-19T09:39:07;8.30;;;5.07;;
20621;SDS011;10470;42.670;23.354;2023-09-19T09:42:01;8.30;;;4.83;;
20621;SDS011;10470;42.670;23.354;2023-09-19T09:44:41;11.57;;;6.40;;
20621;SDS011;10470;42.670;23.354;2023-09-19T09:47:20;7.40;;;4.90;;
20621;SDS011;10470;42.670;23.354;2023-09-19T09:50:11;10.17;;;5.40;;
20621;SDS011;10470;42.670;23.354;2023-09-19T09:52:53;7.30;;;5.10;;
20621;SDS011;10470;42.670;23.354;2023-09-19T09:55:27;9.67;;;4.87;;
20621;SDS011;10470;42.670;23.354;2023-09-19T09:58:17;8.97;;;5.03;;
20621;SDS011;10470;42.670;23.354;2023-09-19T10:00:53;10.03;;;5.20;;
20621;SDS011;10470;42.670;23.354;2023-09-19T10:03:43;6.47;;;4.87;;
20621;SDS011;10470;42.670;23.354;2023-09-19T10:06:18;5.63;;;4.77;;
20621;SDS011;10470;42.670;23.354;2023-09-19T10:11:47;7.70;;;5.83;;
20621;SDS011;10470;42.670;23.354;2023-09-19T10:14:21;9.37;;;4.93;;
20621;SDS011;10470;42.670;23.354;2023-09-19T10:16:55;6.47;;;4.80;;
20621;SDS011;10470;42.670;23.354;2023-09-19T10:19:37;9.70;;;5.50;;
20621;SDS011;10470;42.670;23.354;2023-09-19T10:22:10;6.40;;;4.53;;
20621;SDS011;10470;42.670;23.354;2023-09-19T10:24:44;5.43;;;4.80;;
20621;SDS011;10470;42.670;23.354;2023-09-19T10:27:18;7.20;;;5.27;;
20621;SDS011;10470;42.670;23.354;2023-09-19T10:29:53;6.83;;;4.50;;
20621;SDS011;10470;42.670;23.354;2023-09-19T10:32:28;12.47;;;4.97;;
20621;SDS011;10470;42.670;23.354;2023-09-19T10:35:11;8.47;;;4.73;;
20621;SDS011;10470;42.670;23.354;2023-09-19T10:37:44;9.87;;;4.90;;
20621;SDS011;10470;42.670;23.354;2023-09-19T10:40:17;6.43;;;4.73;;
20621;SDS011;10470;42.670;23.354;2023-09-19T10:42:52;6.87;;;4.67;;
20621;SDS011;10470;42.670;23.354;2023-09-19T10:45:25;12.37;;;5.33;;
20621;SDS011;10470;42.670;23.354;2023-09-19T10:48:01;6.57;;;4.67;;
20621;SDS011;10470;42.670;23.354;2023-09-19T10:50:44;8.50;;;5.07;;
20621;SDS011;10470;42.670;23.354;2023-09-19T10:53:20;8.53;;;4.90;;
20621;SDS011;10470;42.670;23.354;2023-09-19T10:55:56;7.73;;;5.17;;
20621;SDS011;10470;42.670;23.354;2023-09-19T10:58:31;6.93;;;4.73;;
20621;SDS011;10470;42.670;23.354;2023-09-19T11:01:11;7.83;;;5.30;;
20621;SDS011;10470;42.670;23.354;2023-09-19T11:03:50;8.20;;;5.40;;
20621;SDS011;10470;42.670;23.354;2023-09-19T11:06:43;6.90;;;5.00;;
20621;SDS011;10470;42.670;23.354;2023-09-19T11:09:47;10.97;;;5.20;;
20621;SDS011;10470;42.670;23.354;2023-09-19T11:15:06;6.10;;;5.50;;
20621;SDS011;10470;42.670;23.354;2023-09-19T11:17:41;6.53;;;4.97;;
20621;SDS011;10470;42.670;23.354;2023-09-19T11:20:18;7.23;;;4.87;;
20621;SDS011;10470;42.670;23.354;2023-09-19T11:25:50;5.57;;;5.00;;
20621;SDS011;10470;42.670;23.354;2023-09-19T11:30:58;8.00;;;5.17;;
20621;SDS011;10470;42.670;23.354;2023-09-19T11:33:33;7.60;;;4.83;;
20621;SDS011;10470;42.670;23.354;2023-09-19T11:46:33;6.30;;;5.07;;
20621;SDS011;10470;42.670;23.354;2023-09-19T11:49:08;6.90;;;5.17;;
20621;SDS011;10470;42.670;23.354;2023-09-19T11:51:42;7.53;;;4.93;;
20621;SDS011;10470;42.670;23.354;2023-09-19T11:54:17;7.37;;;4.87;;
20621;SDS011;10470;42.670;23.354;2023-09-19T11:56:56;5.70;;;4.80;;
20621;SDS011;10470;42.670;23.354;2023-09-19T11:59:32;6.90;;;5.40;;
20621;SDS011;10470;42.670;23.354;2023-09-19T12:02:05;7.63;;;5.10;;
20621;SDS011;10470;42.670;23.354;2023-09-19T12:04:44;8.23;;;5.80;;
20621;SDS011;10470;42.670;23.354;2023-09-19T12:07:18;6.43;;;4.97;;
20621;SDS011;10470;42.670;23.354;2023-09-19T12:10:03;6.83;;;5.03;;
20621;SDS011;10470;42.670;23.354;2023-09-19T12:12:32;7.87;;;5.00;;
20621;SDS011;10470;42.670;23.354;2023-09-19T12:15:01;8.13;;;5.07;;
20621;SDS011;10470;42.670;23.354;2023-09-19T12:17:38;5.90;;;4.67;;
20621;SDS011;10470;42.670;23.354;2023-09-19T12:20:10;8.43;;;5.00;;
20621;SDS011;10470;42.670;23.354;2023-09-19T12:22:47;9.53;;;4.90;;
20621;SDS011;10470;42.670;23.354;2023-09-19T12:25:19;5.47;;;4.87;;
20621;SDS011;10470;42.670;23.354;2023-09-19T12:27:56;6.27;;;5.27;;
20621;SDS011;10470;42.670;23.354;2023-09-19T12:30:29;6.37;;;4.60;;
20621;SDS011;10470;42.670;23.354;2023-09-19T12:33:20;10.90;;;5.40;;
20621;SDS011;10470;42.670;23.354;2023-09-19T12:35:52;6.63;;;4.57;;
20621;SDS011;10470;42.670;23.354;2023-09-19T12:38:28;6.80;;;4.60;;
20621;SDS011;10470;42.670;23.354;2023-09-19T12:41:01;10.57;;;4.60;;
20621;SDS011;10470;42.670;23.354;2023-09-19T12:43:30;7.67;;;4.77;;
20621;SDS011;10470;42.670;23.354;2023-09-19T12:46:06;6.18;;;4.47;;
20621;SDS011;10470;42.670;23.354;2023-09-19T12:48:38;5.68;;;4.60;;
20621;SDS011;10470;42.670;23.354;2023-09-19T12:51:20;5.70;;;4.70;;
20621;SDS011;10470;42.670;23.354;2023-09-19T12:53:57;6.43;;;4.63;;
20621;SDS011;10470;42.670;23.354;2023-09-19T12:56:29;8.57;;;4.97;;
20621;SDS011;10470;42.670;23.354;2023-09-19T12:59:11;6.13;;;4.28;;
20621;SDS011;10470;42.670;23.354;2023-09-19T13:01:45;7.93;;;4.70;;
20621;SDS011;10470;42.670;23.354;2023-09-19T13:04:20;5.43;;;4.72;;
20621;SDS011;10470;42.670;23.354;2023-09-19T13:07:00;4.97;;;4.30;;
20621;SDS011;10470;42.670;23.354;2023-09-19T13:09:34;6.70;;;4.60;;
20621;SDS011;10470;42.670;23.354;2023-09-19T13:15:10;4.70;;;4.30;;
20621;SDS011;10470;42.670;23.354;2023-09-19T13:17:54;4.95;;;4.40;;
20621;SDS011;10470;42.670;23.354;2023-09-19T13:20:29;5.93;;;4.57;;
20621;SDS011;10470;42.670;23.354;2023-09-19T13:23:03;6.07;;;4.38;;
20621;SDS011;10470;42.670;23.354;2023-09-19T13:25:44;4.97;;;4.35;;
20621;SDS011;10470;42.670;23.354;2023-09-19T13:28:20;5.55;;;4.88;;
20621;SDS011;10470;42.670;23.354;2023-09-19T13:30:54;5.10;;;4.70;;
20621;SDS011;10470;42.670;23.354;2023-09-19T13:33:22;5.85;;;4.68;;
20621;SDS011;10470;42.670;23.354;2023-09-19T13:35:59;5.60;;;4.68;;
20621;SDS011;10470;42.670;23.354;2023-09-19T13:38:32;5.20;;;4.70;;
20621;SDS011;10470;42.670;23.354;2023-09-19T13:41:09;5.47;;;4.43;;
20621;SDS011;10470;42.670;23.354;2023-09-19T13:43:42;5.80;;;4.32;;
20621;SDS011;10470;42.670;23.354;2023-09-19T13:46:23;5.20;;;4.60;;
20621;SDS011;10470;42.670;23.354;2023-09-19T13:48:59;6.20;;;4.68;;
20621;SDS011;10470;42.670;23.354;2023-09-19T13:51:34;5.68;;;4.75;;
20621;SDS011;10470;42.670;23.354;2023-09-19T13:54:08;7.00;;;4.65;;
20621;SDS011;10470;42.670;23.354;2023-09-19T13:56:42;5.75;;;5.25;;
20621;SDS011;10470;42.670;23.354;2023-09-19T13:59:11;5.78;;;4.93;;
20621;SDS011;10470;42.670;23.354;2023-09-19T14:01:40;7.97;;;4.88;;
20621;SDS011;10470;42.670;23.354;2023-09-19T14:04:15;6.93;;;4.65;;
20621;SDS011;10470;42.670;23.354;2023-09-19T14:06:50;6.97;;;4.45;;
20621;SDS011;10470;42.670;23.354;2023-09-19T14:09:25;5.80;;;5.20;;
20621;SDS011;10470;42.670;23.354;2023-09-19T14:12:00;7.20;;;4.85;;
20621;SDS011;10470;42.670;23.354;2023-09-19T14:14:34;5.40;;;4.80;;
20621;SDS011;10470;42.670;23.354;2023-09-19T14:17:09;5.55;;;4.97;;
20621;SDS011;10470;42.670;23.354;2023-09-19T14:19:43;8.10;;;5.43;;
20621;SDS011;10470;42.670;23.354;2023-09-19T14:22:18;7.68;;;4.90;;
20621;SDS011;10470;42.670;23.354;2023-09-19T14:24:54;8.38;;;4.97;;
20621;SDS011;10470;42.670;23.354;2023-09-19T14:27:27;6.53;;;4.85;;
20621;SDS011;10470;42.670;23.354;2023-09-19T14:29:58;6.47;;;4.80;;
20621;SDS011;10470;42.670;23.354;2023-09-19T14:32:32;5.38;;;4.82;;
20621;SDS011;10470;42.670;23.354;2023-09-19T14:35:07;6.60;;;5.57;;
20621;SDS011;10470;42.670;23.354;2023-09-19T14:37:42;6.10;;;5.20;;
20621;SDS011;10470;42.670;23.354;2023-09-19T14:40:15;6.65;;;4.80;;
20621;SDS011;10470;42.670;23.354;2023-09-19T14:42:51;6.72;;;5.63;;
20621;SDS011;10470;42.670;23.354;2023-09-19T14:45:25;8.45;;;5.05;;
20621;SDS011;10470;42.670;23.354;2023-09-19T14:48:01;5.60;;;5.07;;
20621;SDS011;10470;42.670;23.354;2023-09-19T14:50:35;5.82;;;5.30;;
20621;SDS011;10470;42.670;23.354;2023-09-19T14:53:11;7.93;;;5.13;;
20621;SDS011;10470;42.670;23.354;2023-09-19T14:55:45;5.43;;;4.60;;
20621;SDS011;10470;42.670;23.354;2023-09-19T14:58:20;7.10;;;5.30;;
20621;SDS011;10470;42.670;23.354;2023-09-19T15:00:54;6.75;;;4.85;;
20621;SDS011;10470;42.670;23.354;2023-09-19T15:03:37;6.68;;;5.10;;
20621;SDS011;10470;42.670;23.354;2023-09-19T15:06:12;6.57;;;5.50;;
20621;SDS011;10470;42.670;23.354;2023-09-19T15:08:46;6.75;;;5.47;;
20621;SDS011;10470;42.670;23.354;2023-09-19T15:11:21;6.40;;;5.05;;
20621;SDS011;10470;42.670;23.354;2023-09-19T15:13:55;5.13;;;4.63;;
20621;SDS011;10470;42.670;23.354;2023-09-19T15:16:31;6.47;;;5.30;;
20621;SDS011;10470;42.670;23.354;2023-09-19T15:19:05;6.00;;;5.40;;
20621;SDS011;10470;42.670;23.354;2023-09-19T15:21:41;6.20;;;5.57;;
20621;SDS011;10470;42.670;23.354;2023-09-19T15:24:15;8.50;;;5.47;;
20621;SDS011;10470;42.670;23.354;2023-09-19T15:26:50;9.02;;;5.60;;
20621;SDS011;10470;42.670;23.354;2023-09-19T15:29:24;7.10;;;6.03;;
20621;SDS011;10470;42.670;23.354;2023-09-19T15:32:00;7.20;;;5.80;;
20621;SDS011;10470;42.670;23.354;2023-09-19T15:34:34;6.83;;;6.13;;
20621;SDS011;10470;42.670;23.354;2023-09-19T15:37:11;8.20;;;5.70;;
20621;SDS011;10470;42.670;23.354;2023-09-19T15:39:45;6.40;;;5.60;;
20621;SDS011;10470;42.670;23.354;2023-09-19T15:42:21;6.45;;;5.72;;
20621;SDS011;10470;42.670;23.354;2023-09-19T15:44:56;6.43;;;5.43;;
20621;SDS011;10470;42.670;23.354;2023-09-19T15:47:31;7.87;;;5.50;;
20621;SDS011;10470;42.670;23.354;2023-09-19T15:50:05;8.50;;;6.43;;
20621;SDS011;10470;42.670;23.354;2023-09-19T15:52:39;6.77;;;6.07;;
20621;SDS011;10470;42.670;23.354;2023-09-19T15:55:14;7.10;;;6.10;;